sensor_id;sensor_type;location;lat;lon;timestamp;P1;P2;P0
45788;PMS7003;31492;54.856;26.318;2023-03-13T07:38:28;0.7;0.5;0.2
45788;PMS7003;31492;54.856;26.318;2023-03-13T07:43:48;1.3;0.3;0.1
45788;PMS7003;31492;54.856;26.318;2023-03-13T07:48:31;0.3;0.3;0.1
45788;PMS7003;31492;54.856;26.318;2023-03-13T10:33:28;0.7;0.3;0.1
45788;PMS7003;31492;54.856;26.318;2023-03-13T10:38:47;4.8;3.9;2.9
45788;PMS7003;31492;54.856;26.318;2023-03-13T10:43:38;4.8;4.1;3.2
45788;PMS7003;31492;54.856;26.318;2023-03-13T10:48:29;4.6;4;3.1
45788;PMS7003;31492;54.856;26.318;2023-03-13T10:53:38;6.1;4.3;3.4
45788;PMS7003;31492;54.856;26.318;2023-03-13T10:58:29;5.7;4.6;3.6
45788;PMS7003;31492;54.856;26.318;2023-03-13T11:03:30;5.2;4.3;3.3
45788;PMS7003;31492;54.856;26.318;2023-03-13T11:08:34;5.2;3.9;3.1
45788;PMS7003;31492;54.856;26.318;2023-03-13T11:13:39;5.7;4.8;3.8
45788;PMS7003;31492;54.856;26.318;2023-03-13T11:18:29;6.3;4.6;3.7
45788;PMS7003;31492;54.856;26.318;2023-03-13T11:23:52;5.2;4.6;3.7
45788;PMS7003;31492;54.856;26.318;2023-03-13T11:28:41;6.8;5.2;4.3
45788;PMS7003;31492;54.856;26.318;2023-03-13T11:33:32;6.8;5.7;4.6
45788;PMS7003;31492;54.856;26.318;2023-03-13T11:38:31;7.5;5.8;4.4
45788;PMS7003;31492;54.856;26.318;2023-03-13T11:43:31;6.9;5.6;4.4
45788;PMS7003;31492;54.856;26.318;2023-03-13T11:48:55;6.7;6;4.6
45788;PMS7003;31492;54.856;26.318;2023-03-13T11:53:57;5.9;5.1;3.9
45788;PMS7003;31492;54.856;26.318;2023-03-13T11:58:40;7.2;5.5;4.3
45788;PMS7003;31492;54.856;26.318;2023-03-13T12:03:53;5.9;5.2;4.1
45788;PMS7003;31492;54.856;26.318;2023-03-13T12:08:40;6.8;5.9;4.4
45788;PMS7003;31492;54.856;26.318;2023-03-13T12:13:51;6.9;5.5;4.1
45788;PMS7003;31492;54.856;26.318;2023-03-13T12:18:29;7.5;6.5;4.8
45788;PMS7003;31492;54.856;26.318;2023-03-13T12:23:41;6.7;5.3;4.1
45788;PMS7003;31492;54.856;26.318;2023-03-13T12:28:50;7.8;6;4.6
45788;PMS7003;31492;54.856;26.318;2023-03-13T12:33:35;8.5;6.8;5
45788;PMS7003;31492;54.856;26.318;2023-03-13T12:38:29;7.7;6.4;5
45788;PMS7003;31492;54.856;26.318;2023-03-13T12:43:29;8.2;6.8;4.7
45788;PMS7003;31492;54.856;26.318;2023-03-13T12:48:43;6.8;5.9;4.4
45788;PMS7003;31492;54.856;26.318;2023-03-13T12:53:35;6.7;5.7;4.3
45788;PMS7003;31492;54.856;26.318;2023-03-13T12:58:29;6.3;5.5;3.9
45788;PMS7003;31492;54.856;26.318;2023-03-13T13:03:29;6.7;5.3;4
45788;PMS7003;31492;54.856;26.318;2023-03-13T13:09:20;6.4;5.6;4
45788;PMS7003;31492;54.856;26.318;2023-03-13T13:13:38;6.1;4.8;3.5
45788;PMS7003;31492;54.856;26.318;2023-03-13T13:18:50;5.8;4.4;3.6
45788;PMS7003;31492;54.856;26.318;2023-03-13T13:23:35;7;5.3;4.1
45788;PMS7003;31492;54.856;26.318;2023-03-13T13:28:50;6.4;5.4;4.3
45788;PMS7003;31492;54.856;26.318;2023-03-13T13:33:40;6;4.7;3.7
45788;PMS7003;31492;54.856;26.318;2023-03-13T13:38:34;5.8;5.2;4.2
45788;PMS7003;31492;54.856;26.318;2023-03-13T13:43:40;5.7;5.3;4
45788;PMS7003;31492;54.856;26.318;2023-03-13T13:48:40;6.3;5.3;3.9
45788;PMS7003;31492;54.856;26.318;2023-03-13T13:53:41;7.7;6.4;4.7
45788;PMS7003;31492;54.856;26.318;2023-03-13T13:58:53;7.7;6.1;4.6
45788;PMS7003;31492;54.856;26.318;2023-03-13T14:03:44;8.4;6.4;4.9
45788;PMS7003;31492;54.856;26.318;2023-03-13T14:08:40;7.9;5.8;4.3
45788;PMS7003;31492;54.856;26.318;2023-03-13T14:13:28;7.8;6.5;5
45788;PMS7003;31492;54.856;26.318;2023-03-13T14:18:40;8.3;6.2;4.6
45788;PMS7003;31492;54.856;26.318;2023-03-13T14:23:52;8.9;6.8;5.1
45788;PMS7003;31492;54.856;26.318;2023-03-13T14:28:39;8.3;6.8;5
45788;PMS7003;31492;54.856;26.318;2023-03-13T14:33:28;9.9;8.4;6.3
45788;PMS7003;31492;54.856;26.318;2023-03-13T14:38:34;10.8;9.2;7.5
45788;PMS7003;31492;54.856;26.318;2023-03-13T14:43:29;11.3;9.4;7
45788;PMS7003;31492;54.856;26.318;2023-03-13T14:48:40;10.8;8.1;6.2
45788;PMS7003;31492;54.856;26.318;2023-03-13T14:53:59;10.7;8.8;6.7
45788;PMS7003;31492;54.856;26.318;2023-03-13T14:58:50;10.6;9.3;7
45788;PMS7003;31492;54.856;26.318;2023-03-13T15:03:42;10.3;8.7;6.4
45788;PMS7003;31492;54.856;26.318;2023-03-13T15:08:28;11.5;9;6.9
45788;PMS7003;31492;54.856;26.318;2023-03-13T15:13:32;11.2;9.8;7.4
45788;PMS7003;31492;54.856;26.318;2023-03-13T15:18:29;12.4;10.1;7.8
45788;PMS7003;31492;54.856;26.318;2023-03-13T15:23:40;42.2;33.5;20.3
45788;PMS7003;31492;54.856;26.318;2023-03-13T15:28:40;19.6;16.4;11.1
45788;PMS7003;31492;54.856;26.318;2023-03-13T15:33:28;32.8;25.3;16.1
45788;PMS7003;31492;54.856;26.318;2023-03-13T15:38:40;69;56.3;33.5
45788;PMS7003;31492;54.856;26.318;2023-03-13T15:43:38;30.9;25.8;18.2
45788;PMS7003;31492;54.856;26.318;2023-03-13T15:48:28;20.2;17.3;12.9
45788;PMS7003;31492;54.856;26.318;2023-03-13T15:53:46;13.6;11.5;7.8
45788;PMS7003;31492;54.856;26.318;2023-03-13T15:58:41;13.8;12;8.7
45788;PMS7003;31492;54.856;26.318;2023-03-13T16:03:28;19;16.5;12.3
45788;PMS7003;31492;54.856;26.318;2023-03-13T16:08:28;15.7;12.8;8.9
45788;PMS7003;31492;54.856;26.318;2023-03-13T16:13:42;19;16.7;11.9
45788;PMS7003;31492;54.856;26.318;2023-03-13T16:18:34;22.6;18.9;12.9
45788;PMS7003;31492;54.856;26.318;2023-03-13T16:23:42;14.7;12.9;9.7
45788;PMS7003;31492;54.856;26.318;2023-03-13T16:28:52;18.9;14.7;10.8
45788;PMS7003;31492;54.856;26.318;2023-03-13T16:33:45;18.4;15.8;10.7
45788;PMS7003;31492;54.856;26.318;2023-03-13T16:38:28;15.9;13.9;10.1
45788;PMS7003;31492;54.856;26.318;2023-03-13T16:43:34;14.5;11.6;8.2
45788;PMS7003;31492;54.856;26.318;2023-03-13T16:48:28;15.6;13;9.1
45788;PMS7003;31492;54.856;26.318;2023-03-13T16:53:28;15.5;13.7;9.4
45788;PMS7003;31492;54.856;26.318;2023-03-13T16:58:28;16.5;13.9;9.8
45788;PMS7003;31492;54.856;26.318;2023-03-13T17:03:40;17.1;14.4;10.5
45788;PMS7003;31492;54.856;26.318;2023-03-13T17:08:58;16.9;14.7;10.3
45788;PMS7003;31492;54.856;26.318;2023-03-13T17:13:28;17.1;13.5;9.8
45788;PMS7003;31492;54.856;26.318;2023-03-13T17:18:28;16.3;13.1;8.9
45788;PMS7003;31492;54.856;26.318;2023-03-13T17:23:51;12.9;10.8;7.6
45788;PMS7003;31492;54.856;26.318;2023-03-13T17:28:28;15;12.6;9.4
45788;PMS7003;31492;54.856;26.318;2023-03-13T17:33:34;14.8;11.9;8.7
45788;PMS7003;31492;54.856;26.318;2023-03-13T17:38:42;14.7;12.3;9.1
45788;PMS7003;31492;54.856;26.318;2023-03-13T17:43:28;14.4;11.6;8.2
45788;PMS7003;31492;54.856;26.318;2023-03-13T17:48:28;12.5;10;7
45788;PMS7003;31492;54.856;26.318;2023-03-13T17:53:42;13.9;11.8;7.9
45788;PMS7003;31492;54.856;26.318;2023-03-13T17:58:38;11.5;10;7.5
45788;PMS7003;31492;54.856;26.318;2023-03-13T18:03:42;11.3;9.7;7.5
45788;PMS7003;31492;54.856;26.318;2023-03-13T18:08:28;10.4;8.8;6.5
45788;PMS7003;31492;54.856;26.318;2023-03-13T18:13:28;12.2;9.4;7.2
45788;PMS7003;31492;54.856;26.318;2023-03-13T18:18:42;12;9;6.8
45788;PMS7003;31492;54.856;26.318;2023-03-13T18:23:52;10.5;9.1;6.7
45788;PMS7003;31492;54.856;26.318;2023-03-13T18:28:28;10.3;8.6;6.1
45788;PMS7003;31492;54.856;26.318;2023-03-13T18:33:28;9.3;8;6.1
45788;PMS7003;31492;54.856;26.318;2023-03-13T18:38:28;9.8;8.6;6.4
45788;PMS7003;31492;54.856;26.318;2023-03-13T18:44:16;8.1;7.2;5.3
45788;PMS7003;31492;54.856;26.318;2023-03-13T18:48:38;9.4;8.2;6.5
45788;PMS7003;31492;54.856;26.318;2023-03-13T18:54:00;9.4;8.1;6.3
45788;PMS7003;31492;54.856;26.318;2023-03-13T18:58:28;9.2;8.3;6.6
45788;PMS7003;31492;54.856;26.318;2023-03-13T19:03:43;8.4;7.5;6.1
45788;PMS7003;31492;54.856;26.318;2023-03-13T19:08:28;9.9;7.9;5.9
45788;PMS7003;31492;54.856;26.318;2023-03-13T19:13:35;9.1;7.8;6.4
45788;PMS7003;31492;54.856;26.318;2023-03-13T19:18:42;9.9;8;6.1
45788;PMS7003;31492;54.856;26.318;2023-03-13T19:24:10;8.9;7.9;6.1
45788;PMS7003;31492;54.856;26.318;2023-03-13T19:28:28;8.7;7.9;6
45788;PMS7003;31492;54.856;26.318;2023-03-13T19:48:28;10;8.5;6.5
45788;PMS7003;31492;54.856;26.318;2023-03-13T19:53:28;9.8;8.3;6.3
45788;PMS7003;31492;54.856;26.318;2023-03-13T19:58:28;9.6;8.5;6.6
45788;PMS7003;31492;54.856;26.318;2023-03-13T20:03:55;9.8;8.7;6.6
45788;PMS7003;31492;54.856;26.318;2023-03-13T20:08:34;9.8;8;6.2
45788;PMS7003;31492;54.856;26.318;2023-03-13T20:13:28;10;8.4;6.7
45788;PMS7003;31492;54.856;26.318;2023-03-13T20:18:40;9.9;8.1;6.2
45788;PMS7003;31492;54.856;26.318;2023-03-13T20:23:28;9.2;8.2;5.9
45788;PMS7003;31492;54.856;26.318;2023-03-13T20:28:28;9.8;7.9;6.1
45788;PMS7003;31492;54.856;26.318;2023-03-13T20:33:40;9.5;7.9;6.2
45788;PMS7003;31492;54.856;26.318;2023-03-13T20:38:34;9.8;8;6.2
45788;PMS7003;31492;54.856;26.318;2023-03-13T20:43:52;9.5;8;6.4
45788;PMS7003;31492;54.856;26.318;2023-03-13T20:48:40;9;8;6
45788;PMS7003;31492;54.856;26.318;2023-03-13T20:53:34;10.1;8.6;6.7
45788;PMS7003;31492;54.856;26.318;2023-03-13T20:58:42;10.6;8.8;7
45788;PMS7003;31492;54.856;26.318;2023-03-13T21:03:40;9.7;8.5;6.4
45788;PMS7003;31492;54.856;26.318;2023-03-13T21:08:28;10.5;8.7;7
45788;PMS7003;31492;54.856;26.318;2023-03-13T21:13:54;9.8;8.4;6.7
45788;PMS7003;31492;54.856;26.318;2023-03-13T21:18:28;10.6;9.2;6.7
45788;PMS7003;31492;54.856;26.318;2023-03-13T21:24:09;9.8;8.5;6.4
45788;PMS7003;31492;54.856;26.318;2023-03-13T21:28:54;9.8;8.1;6.2
45788;PMS7003;31492;54.856;26.318;2023-03-13T21:33:28;8.7;8.4;6.6
45788;PMS7003;31492;54.856;26.318;2023-03-13T21:38:46;9.5;8.2;6.2
45788;PMS7003;31492;54.856;26.318;2023-03-13T21:43:54;9.1;8.4;6.6
45788;PMS7003;31492;54.856;26.318;2023-03-13T21:48:28;8.3;7.2;5.3
45788;PMS7003;31492;54.856;26.318;2023-03-13T21:53:28;9.2;7.5;5.7
45788;PMS7003;31492;54.856;26.318;2023-03-13T21:58:52;9.4;8.2;6.1
45788;PMS7003;31492;54.856;26.318;2023-03-13T22:03:28;8.5;7.8;5.6
45788;PMS7003;31492;54.856;26.318;2023-03-13T22:08:28;8.5;7.5;5.4
45788;PMS7003;31492;54.856;26.318;2023-03-13T22:13:40;9.1;7.5;5.6
45788;PMS7003;31492;54.856;26.318;2023-03-13T22:18:28;8.8;7.4;5.4
45788;PMS7003;31492;54.856;26.318;2023-03-13T22:23:40;8.4;7;5.3
45788;PMS7003;31492;54.856;26.318;2023-03-13T22:28:52;8.7;7.6;5.4
45788;PMS7003;31492;54.856;26.318;2023-03-13T22:33:29;8.1;6.6;5.3
45788;PMS7003;31492;54.856;26.318;2023-03-13T22:38:28;8.1;6.7;5
45788;PMS7003;31492;54.856;26.318;2023-03-13T22:43:52;7.7;6.8;4.9
45788;PMS7003;31492;54.856;26.318;2023-03-13T22:48:29;7.8;6.1;4.5
45788;PMS7003;31492;54.856;26.318;2023-03-13T22:53:58;6.5;5.8;4.6
45788;PMS7003;31492;54.856;26.318;2023-03-13T22:58:28;7.8;6.5;5.2
45788;PMS7003;31492;54.856;26.318;2023-03-13T23:03:28;6.8;5.7;4.4
45788;PMS7003;31492;54.856;26.318;2023-03-13T23:08:28;7.2;6.5;4.9
45788;PMS7003;31492;54.856;26.318;2023-03-13T23:13:29;8.1;6.8;5
45788;PMS7003;31492;54.856;26.318;2023-03-13T23:18:52;7.7;6.6;5.1
45788;PMS7003;31492;54.856;26.318;2023-03-13T23:23:28;7.5;6.5;4.8
45788;PMS7003;31492;54.856;26.318;2023-03-13T23:28:28;6.9;5.6;4.5
45788;PMS7003;31492;54.856;26.318;2023-03-13T23:33:38;7.9;6.2;4.9
45788;PMS7003;31492;54.856;26.318;2023-03-13T23:38:35;7.9;6;4.3
45788;PMS7003;31492;54.856;26.318;2023-03-13T23:43:45;6.9;5.7;4.4
45788;PMS7003;31492;54.856;26.318;2023-03-13T23:48:28;7.1;6.4;5
45788;PMS7003;31492;54.856;26.318;2023-03-13T23:53:41;8.1;6.4;4.8
45788;PMS7003;31492;54.856;26.318;2023-03-13T23:58:44;8.1;6.6;5.1
